TimeCDT,TemperatureF,Dew PointF,Humidity,Sea Level PressureIn,VisibilityMPH,Wind Direction,Wind SpeedMPH,Gust SpeedMPH,PrecipitationIn,Events,Conditions,WindDirDegrees,DateUTC
12:21 AM,73.4,55.4,53,29.97,10.0,NNW,20.7,31.1,0.00,Rain,Light Rain,340,2013-06-16 05:21:00
12:53 AM,72.0,57.0,59,29.86,10.0,WNW,13.8,-,0.00,Thunderstorm,Clear,300,2013-06-16 05:53:00
1:24 AM,69.8,60.8,73,30.03,10.0,North,17.3,-,0.00,Rain-Thunderstorm,Light Thunderstorms and Rain,10,2013-06-16 06:24:00
1:53 AM,66.9,61.0,81,29.94,10.0,NNE,21.9,27.6,0.02,Rain-Thunderstorm,Light Thunderstorms and Rain,30,2013-06-16 06:53:00
2:48 AM,66.2,60.8,83,30.01,10.0,East,24.2,32.2,0.05,Rain,Light Rain,80,2013-06-16 07:48:00
2:53 AM,66.0,60.1,81,29.86,10.0,East,21.9,34.5,0.05,Rain,Light Rain,80,2013-06-16 07:53:00
3:53 AM,66.0,60.1,81,29.87,10.0,East,13.8,-,0.00,,Mostly Cloudy,90,2013-06-16 08:53:00
4:48 AM,64.4,60.8,88,30.12,2.0,East,8.1,-,0.14,Rain-Thunderstorm,Heavy Thunderstorms and Rain,90,2013-06-16 09:48:00
4:53 AM,63.0,60.1,90,29.99,1.5,SE,11.5,18.4,0.41,Rain-Thunderstorm,Heavy Thunderstorms and Rain,130,2013-06-16 09:53:00
4:58 AM,62.6,60.8,94,30.10,2.0,East,16.1,21.9,0.14,Rain-Thunderstorm,Heavy Thunderstorms and Rain,90,2013-06-16 09:58:00
5:05 AM,62.6,60.8,94,30.11,6.0,ENE,11.5,-,0.17,Rain-Thunderstorm,Light Thunderstorms and Rain,60,2013-06-16 10:05:00
5:16 AM,64.4,60.8,88,30.11,10.0,ENE,12.7,-,0.18,Rain-Thunderstorm,Light Thunderstorms and Rain,60,2013-06-16 10:16:00
5:35 AM,62.6,60.8,94,30.08,9.0,East,13.8,21.9,0.31,Rain,Light Rain,90,2013-06-16 10:35:00
5:45 AM,62.6,60.8,94,30.07,10.0,East,18.4,24.2,0.31,Rain-Thunderstorm,Light Rain,90,2013-06-16 10:45:00
5:53 AM,64.0,59.0,84,29.93,10.0,East,17.3,23.0,0.31,Rain-Thunderstorm,Light Rain,100,2013-06-16 10:53:00
6:50 AM,64.4,59.0,83,30.07,10.0,SE,16.1,23.0,0.02,,Mostly Cloudy,130,2013-06-16 11:50:00
6:53 AM,64.0,59.0,84,29.93,10.0,SE,13.8,23.0,0.02,,Mostly Cloudy,140,2013-06-16 11:53:00
7:53 AM,66.0,59.0,78,29.90,10.0,SE,15.0,20.7,N/A,,Clear,140,2013-06-16 12:53:00
8:53 AM,69.1,61.0,75,29.91,10.0,South,4.6,-,N/A,,Clear,170,2013-06-16 13:53:00
9:53 AM,72.0,63.0,73,29.90,10.0,South,17.3,23.0,N/A,,Clear,180,2013-06-16 14:53:00
10:53 AM,78.1,63.0,60,29.87,10.0,South,17.3,27.6,N/A,,Clear,180,2013-06-16 15:53:00
11:53 AM,79.0,61.0,54,29.89,10.0,South,17.3,25.3,N/A,,Clear,180,2013-06-16 16:53:00
12:53 PM,84.9,62.1,46,29.89,10.0,South,12.7,21.9,N/A,,Clear,170,2013-06-16 17:53:00
1:53 PM,86.0,64.9,49,29.88,10.0,South,12.7,-,N/A,,Partly Cloudy,170,2013-06-16 18:53:00
2:53 PM,87.1,64.0,46,29.86,10.0,South,12.7,21.9,N/A,,Partly Cloudy,190,2013-06-16 19:53:00
3:53 PM,89.1,64.0,43,29.83,10.0,South,11.5,19.6,N/A,,Scattered Clouds,170,2013-06-16 20:53:00
4:53 PM,90.0,62.1,39,29.79,10.0,South,13.8,20.7,N/A,,Partly Cloudy,190,2013-06-16 21:53:00
5:53 PM,91.9,62.1,37,29.77,10.0,SSE,13.8,19.6,N/A,,Clear,160,2013-06-16 22:53:00
6:53 PM,90.0,62.1,39,29.74,10.0,SE,11.5,-,N/A,,Mostly Cloudy,140,2013-06-16 23:53:00
7:18 PM,87.8,62.6,43,29.88,10.0,South,12.7,20.7,0.00,Rain-Thunderstorm,Light Rain,180,2013-06-17 00:18:00
7:53 PM,81.0,68.0,65,29.78,10.0,ENE,15.0,-,0.00,Rain-Thunderstorm,Light Thunderstorms and Rain,60,2013-06-17 00:53:00
8:53 PM,79.0,64.9,62,29.74,10.0,SE,16.1,21.9,0.00,Thunderstorm,Clear,130,2013-06-17 01:53:00
9:44 PM,73.4,62.6,69,29.97,10.0,North,31.1,55.2,N/A,Thunderstorm,Unknown,360,2013-06-17 02:44:00
9:53 PM,68.0,63.0,84,29.88,10.0,North,18.4,36.8,0.00,Rain-Thunderstorm,Light Thunderstorms and Rain,360,2013-06-17 02:53:00
10:03 PM,71.6,64.4,78,30.00,2.5,NNE,13.8,32.2,0.15,Rain-Thunderstorm,Heavy Thunderstorms and Rain,30,2013-06-17 03:03:00
10:11 PM,68.0,64.4,88,30.01,3.0,NE,8.1,19.6,0.28,Rain-Thunderstorm,Heavy Thunderstorms and Rain,40,2013-06-17 03:11:00
10:19 PM,66.2,64.4,94,30.00,7.0,North,26.5,34.5,0.31,Rain-Thunderstorm,Light Thunderstorms and Rain,10,2013-06-17 03:19:00
10:43 PM,64.4,60.8,88,30.08,10.0,East,10.4,20.7,0.31,Thunderstorm,Thunderstorm,80,2013-06-17 03:43:00
10:53 PM,64.9,60.1,84,29.94,10.0,NNE,11.5,21.9,0.31,Thunderstorm,Thunderstorm,30,2013-06-17 03:53:00
11:04 PM,64.4,60.8,88,30.05,10.0,ENE,13.8,21.9,N/A,Thunderstorm,Thunderstorm,70,2013-06-17 04:04:00
11:17 PM,64.4,60.8,88,30.04,10.0,East,11.5,21.9,N/A,Thunderstorm,Mostly Cloudy,90,2013-06-17 04:17:00
11:53 PM,64.9,59.0,81,29.93,10.0,ENE,12.7,-,0.18,Thunderstorm,Thunderstorm,70,2013-06-17 04:53:00